Terminal Aerodrome Forecast
Issued by NWS

Home | Current Version | Previous Version | Text Only | Print | Product List | Glossary On
Versions: 1 2 3 4 5 6 7 8 9 10 11 12 13 14 15 16 17
622
FTUS43 KGRR 221740
TAFBTL
TAF
KBTL 221740Z 2218/2318 27006KT P6SM OVC035
      TEMPO 2218/2220 6SM -SHRA BR OVC025
     FM222000 31005KT P6SM BKN035
     FM230000 01003KT P6SM FEW040
     FM230600 03002KT 3SM BR BKN005
     FM231500 28005KT 5SM HZ BKN025=

USA.gov is the U.S. government's official web portal to all federal, state and local government web resources and services.